Tha Tum, Thailand

9:37 AM ICT on February 13, 2016 (GMT +0700)
Sanam Chai, Satuk, Buriram, Thailand 31150 | | Change Station
CLOSE
Current Station
Personal Weather Station
Location: Mueang Kae, BURI RAM
Elevation: 551 ft
Nearby Weather Stations

Elev 551 ft 15.24 °N, 103.33 °E | Updated 7 seconds ago

Clear
Clear
83.5 °F
Feels Like 85 °F
N
6.0
Wind Variable Wind from WNW
Gusts 7.4 mph

Today
High -- | Low -- °F
--% Chance of Precip.
Yesterday
High -- | Low -- °F
Precip. -- in
Pressure 29.95 in
Visibility 5.0 miles
Clouds
Heat Index 85 °F
Dew Point 65 °F
Humidity 53%
Rainfall 0.00 in
Snow Depth Not available.
6:31 AM 6:08 PM
Waxing Crescent, 26% visible
METAR VTUO 130100Z 24003KT 170V320 8000 NSC 25/19 Q1014 A2996 INFO B RWY 22
Pressure 29.95 in
Visibility 5.0 miles
Clouds
Heat Index 85 °F
Dew Point 65 °F
Humidity 53%
Rainfall 0.00 in
Snow Depth Not available.
6:31 AM 6:08 PM
Waxing Crescent, 26% visible
METAR VTUO 130100Z 24003KT 170V320 8000 NSC 25/19 Q1014 A2996 INFO B RWY 22

10-Day Weather Forecast

No radar image for this location.
×

Almanac

Astronomy

Feb. 13, 2016 Rise Set
Actual Time
Civil Twilight
Nautical Twilight
Astronomical Twilight
Moon
Length of Visible Light
Length of Day
Tomorrow will be .
, % of the Moon is Illuminated

Today's Extremes

Country Highs Country Lows

Community

WunderPhotos

Upload Photos

1,892,464 photos uploaded!

WunderBlog® & News

Nearby

Air Quality

  Air Quality AQ Index Pollutant
Not available.

Snow Depth

Station Depth Elevation

Earthquake Activity

City Distance Mag. Time & Date
Minimum magnitude displayed is 2.5.

Coastal Water Temperatures

Place Temperature

Stations

Nearby Weather Stations

Station Location Temp. Windchill Dew Point Humidity Wind Precip. Elev Updated Type